sensor_id;sensor_type;location;lat;lon;timestamp;P1;durP1;ratioP1;P2;durP2;ratioP2
47930;SDS011;33697;51.520;9.950;2022-11-20T00:00:06;31.97;;;20.77;;
47930;SDS011;33697;51.520;9.950;2022-11-20T00:02:33;30.27;;;21.67;;
47930;SDS011;33697;51.520;9.950;2022-11-20T00:04:59;32.30;;;22.40;;
47930;SDS011;33697;51.520;9.950;2022-11-20T00:07:26;37.63;;;22.47;;
47930;SDS011;33697;51.520;9.950;2022-11-20T00:09:52;34.10;;;21.97;;
47930;SDS011;33697;51.520;9.950;2022-11-20T00:12:18;34.20;;;22.13;;
47930;SDS011;33697;51.520;9.950;2022-11-20T00:14:44;34.00;;;21.57;;
47930;SDS011;33697;51.520;9.950;2022-11-20T00:17:11;30.40;;;20.00;;
47930;SDS011;33697;51.520;9.950;2022-11-20T00:19:37;39.60;;;23.00;;
47930;SDS011;33697;51.520;9.950;2022-11-20T00:22:04;32.30;;;19.83;;
47930;SDS011;33697;51.520;9.950;2022-11-20T00:24:30;26.70;;;16.90;;
47930;SDS011;33697;51.520;9.950;2022-11-20T00:26:56;32.57;;;19.37;;
47930;SDS011;33697;51.520;9.950;2022-11-20T00:29:22;35.53;;;20.67;;
47930;SDS011;33697;51.520;9.950;2022-11-20T00:31:49;30.37;;;18.27;;
47930;SDS011;33697;51.520;9.950;2022-11-20T00:34:15;31.60;;;21.00;;
47930;SDS011;33697;51.520;9.950;2022-11-20T00:36:41;25.67;;;18.70;;
47930;SDS011;33697;51.520;9.950;2022-11-20T00:39:07;30.53;;;20.43;;
47930;SDS011;33697;51.520;9.950;2022-11-20T00:41:34;33.70;;;19.23;;
47930;SDS011;33697;51.520;9.950;2022-11-20T00:44:00;33.23;;;19.30;;
47930;SDS011;33697;51.520;9.950;2022-11-20T00:46:27;29.60;;;20.33;;
47930;SDS011;33697;51.520;9.950;2022-11-20T00:48:53;30.23;;;19.07;;
47930;SDS011;33697;51.520;9.950;2022-11-20T00:51:21;28.93;;;17.57;;
47930;SDS011;33697;51.520;9.950;2022-11-20T00:53:48;32.33;;;18.43;;
47930;SDS011;33697;51.520;9.950;2022-11-20T00:56:16;30.83;;;19.77;;
47930;SDS011;33697;51.520;9.950;2022-11-20T00:58:43;31.57;;;20.33;;
47930;SDS011;33697;51.520;9.950;2022-11-20T01:03:40;28.90;;;18.40;;
47930;SDS011;33697;51.520;9.950;2022-11-20T01:06:11;27.93;;;17.27;;
47930;SDS011;33697;51.520;9.950;2022-11-20T01:08:37;33.03;;;21.10;;
47930;SDS011;33697;51.520;9.950;2022-11-20T01:11:06;30.70;;;20.57;;
47930;SDS011;33697;51.520;9.950;2022-11-20T01:13:32;27.90;;;20.07;;
47930;SDS011;33697;51.520;9.950;2022-11-20T01:16:09;40.43;;;26.50;;
47930;SDS011;33697;51.520;9.950;2022-11-20T01:21:02;33.43;;;21.93;;
47930;SDS011;33697;51.520;9.950;2022-11-20T01:23:35;41.73;;;25.47;;
47930;SDS011;33697;51.520;9.950;2022-11-20T01:26:05;32.10;;;22.63;;
47930;SDS011;33697;51.520;9.950;2022-11-20T01:28:32;39.27;;;24.43;;
47930;SDS011;33697;51.520;9.950;2022-11-20T01:30:59;34.20;;;22.87;;
47930;SDS011;33697;51.520;9.950;2022-11-20T01:33:25;33.90;;;22.23;;
47930;SDS011;33697;51.520;9.950;2022-11-20T01:35:52;42.40;;;23.90;;
47930;SDS011;33697;51.520;9.950;2022-11-20T01:38:19;29.93;;;20.30;;
47930;SDS011;33697;51.520;9.950;2022-11-20T01:40:54;30.70;;;19.83;;
47930;SDS011;33697;51.520;9.950;2022-11-20T01:43:22;30.43;;;19.87;;
47930;SDS011;33697;51.520;9.950;2022-11-20T01:45:59;23.77;;;18.70;;
47930;SDS011;33697;51.520;9.950;2022-11-20T01:48:40;37.27;;;20.23;;
47930;SDS011;33697;51.520;9.950;2022-11-20T01:51:43;29.47;;;20.37;;
47930;SDS011;33697;51.520;9.950;2022-11-20T01:54:02;30.77;;;20.40;;
47930;SDS011;33697;51.520;9.950;2022-11-20T01:56:31;29.27;;;19.57;;
47930;SDS011;33697;51.520;9.950;2022-11-20T01:59:01;33.47;;;21.88;;
47930;SDS011;33697;51.520;9.950;2022-11-20T02:01:27;27.70;;;18.73;;
47930;SDS011;33697;51.520;9.950;2022-11-20T02:03:54;28.03;;;19.70;;
47930;SDS011;33697;51.520;9.950;2022-11-20T02:06:25;31.97;;;20.00;;
47930;SDS011;33697;51.520;9.950;2022-11-20T02:08:52;31.20;;;19.90;;
47930;SDS011;33697;51.520;9.950;2022-11-20T02:11:18;27.20;;;19.37;;
47930;SDS011;33697;51.520;9.950;2022-11-20T02:13:45;28.87;;;19.23;;
47930;SDS011;33697;51.520;9.950;2022-11-20T02:16:54;30.47;;;19.27;;
47930;SDS011;33697;51.520;9.950;2022-11-20T02:19:01;34.47;;;21.17;;
47930;SDS011;33697;51.520;9.950;2022-11-20T02:21:41;31.17;;;19.17;;
47930;SDS011;33697;51.520;9.950;2022-11-20T02:24:18;26.67;;;18.80;;
47930;SDS011;33697;51.520;9.950;2022-11-20T02:26:49;33.03;;;20.20;;
47930;SDS011;33697;51.520;9.950;2022-11-20T02:29:18;30.97;;;19.33;;
47930;SDS011;33697;51.520;9.950;2022-11-20T02:31:46;30.03;;;17.83;;
47930;SDS011;33697;51.520;9.950;2022-11-20T02:34:12;37.30;;;21.23;;
47930;SDS011;33697;51.520;9.950;2022-11-20T02:36:39;33.57;;;19.77;;
47930;SDS011;33697;51.520;9.950;2022-11-20T02:39:06;30.97;;;20.00;;
47930;SDS011;33697;51.520;9.950;2022-11-20T02:41:33;28.60;;;20.43;;
47930;SDS011;33697;51.520;9.950;2022-11-20T02:44:00;31.40;;;19.87;;
47930;SDS011;33697;51.520;9.950;2022-11-20T02:46:27;35.27;;;20.47;;
47930;SDS011;33697;51.520;9.950;2022-11-20T02:48:53;25.50;;;17.43;;
47930;SDS011;33697;51.520;9.950;2022-11-20T02:51:19;28.83;;;21.50;;
47930;SDS011;33697;51.520;9.950;2022-11-20T02:53:46;30.50;;;19.33;;
47930;SDS011;33697;51.520;9.950;2022-11-20T02:56:12;27.60;;;19.40;;
47930;SDS011;33697;51.520;9.950;2022-11-20T02:58:39;31.10;;;18.30;;
47930;SDS011;33697;51.520;9.950;2022-11-20T03:01:05;30.97;;;19.47;;
47930;SDS011;33697;51.520;9.950;2022-11-20T03:03:31;29.80;;;18.13;;
47930;SDS011;33697;51.520;9.950;2022-11-20T03:06:00;26.70;;;18.57;;
47930;SDS011;33697;51.520;9.950;2022-11-20T03:08:27;30.20;;;17.93;;
47930;SDS011;33697;51.520;9.950;2022-11-20T03:10:54;28.40;;;18.97;;
47930;SDS011;33697;51.520;9.950;2022-11-20T03:13:20;31.33;;;18.77;;
47930;SDS011;33697;51.520;9.950;2022-11-20T03:15:46;27.53;;;18.37;;
47930;SDS011;33697;51.520;9.950;2022-11-20T03:18:13;28.43;;;18.90;;
47930;SDS011;33697;51.520;9.950;2022-11-20T03:20:39;34.57;;;19.10;;
47930;SDS011;33697;51.520;9.950;2022-11-20T03:23:06;29.10;;;18.93;;
47930;SDS011;33697;51.520;9.950;2022-11-20T03:25:32;33.60;;;20.03;;
47930;SDS011;33697;51.520;9.950;2022-11-20T03:27:58;30.20;;;18.50;;
47930;SDS011;33697;51.520;9.950;2022-11-20T03:30:25;34.20;;;20.43;;
47930;SDS011;33697;51.520;9.950;2022-11-20T03:32:55;32.67;;;19.50;;
47930;SDS011;33697;51.520;9.950;2022-11-20T03:35:22;40.03;;;22.17;;
47930;SDS011;33697;51.520;9.950;2022-11-20T03:37:48;36.70;;;20.27;;
47930;SDS011;33697;51.520;9.950;2022-11-20T03:40:14;28.27;;;18.13;;
47930;SDS011;33697;51.520;9.950;2022-11-20T03:42:41;30.60;;;18.87;;
47930;SDS011;33697;51.520;9.950;2022-11-20T03:45:16;28.70;;;18.47;;
47930;SDS011;33697;51.520;9.950;2022-11-20T03:47:43;30.30;;;17.33;;
47930;SDS011;33697;51.520;9.950;2022-11-20T03:50:11;29.90;;;18.83;;
47930;SDS011;33697;51.520;9.950;2022-11-20T03:52:39;32.33;;;19.83;;
47930;SDS011;33697;51.520;9.950;2022-11-20T03:55:05;29.83;;;19.27;;
47930;SDS011;33697;51.520;9.950;2022-11-20T03:57:32;32.70;;;19.23;;
47930;SDS011;33697;51.520;9.950;2022-11-20T03:59:58;26.83;;;18.30;;
47930;SDS011;33697;51.520;9.950;2022-11-20T04:02:24;27.00;;;17.50;;
47930;SDS011;33697;51.520;9.950;2022-11-20T04:04:51;29.30;;;19.17;;
47930;SDS011;33697;51.520;9.950;2022-11-20T04:07:17;30.00;;;17.33;;
47930;SDS011;33697;51.520;9.950;2022-11-20T04:09:43;30.63;;;18.70;;
47930;SDS011;33697;51.520;9.950;2022-11-20T04:12:10;36.77;;;22.27;;
47930;SDS011;33697;51.520;9.950;2022-11-20T04:14:36;33.13;;;18.87;;
47930;SDS011;33697;51.520;9.950;2022-11-20T04:17:03;30.67;;;18.33;;
47930;SDS011;33697;51.520;9.950;2022-11-20T04:19:29;32.13;;;20.27;;
47930;SDS011;33697;51.520;9.950;2022-11-20T04:21:56;27.67;;;18.20;;
47930;SDS011;33697;51.520;9.950;2022-11-20T04:24:22;26.10;;;16.70;;
47930;SDS011;33697;51.520;9.950;2022-11-20T04:26:48;35.60;;;20.93;;
47930;SDS011;33697;51.520;9.950;2022-11-20T04:29:14;37.83;;;19.23;;
47930;SDS011;33697;51.520;9.950;2022-11-20T04:31:41;33.07;;;22.53;;
47930;SDS011;33697;51.520;9.950;2022-11-20T04:34:07;31.73;;;19.37;;
47930;SDS011;33697;51.520;9.950;2022-11-20T04:36:34;29.70;;;19.03;;
47930;SDS011;33697;51.520;9.950;2022-11-20T04:39:01;33.50;;;20.13;;
47930;SDS011;33697;51.520;9.950;2022-11-20T04:41:30;29.57;;;18.80;;
47930;SDS011;33697;51.520;9.950;2022-11-20T04:43:57;33.50;;;19.03;;
47930;SDS011;33697;51.520;9.950;2022-11-20T04:46:26;31.47;;;18.67;;
47930;SDS011;33697;51.520;9.950;2022-11-20T04:48:53;34.17;;;19.40;;
47930;SDS011;33697;51.520;9.950;2022-11-20T04:51:19;31.67;;;18.47;;
47930;SDS011;33697;51.520;9.950;2022-11-20T04:53:46;28.00;;;19.33;;
47930;SDS011;33697;51.520;9.950;2022-11-20T04:56:12;27.87;;;18.67;;
47930;SDS011;33697;51.520;9.950;2022-11-20T04:58:39;31.63;;;18.87;;
47930;SDS011;33697;51.520;9.950;2022-11-20T05:01:12;33.40;;;18.93;;
47930;SDS011;33697;51.520;9.950;2022-11-20T05:03:39;26.33;;;18.30;;
47930;SDS011;33697;51.520;9.950;2022-11-20T05:06:08;26.47;;;19.97;;
47930;SDS011;33697;51.520;9.950;2022-11-20T05:08:34;34.17;;;20.30;;
47930;SDS011;33697;51.520;9.950;2022-11-20T05:11:02;31.50;;;17.87;;
47930;SDS011;33697;51.520;9.950;2022-11-20T05:13:29;30.73;;;18.77;;
47930;SDS011;33697;51.520;9.950;2022-11-20T05:15:55;32.93;;;19.73;;
47930;SDS011;33697;51.520;9.950;2022-11-20T05:18:22;27.90;;;18.37;;
47930;SDS011;33697;51.520;9.950;2022-11-20T05:20:54;30.87;;;18.80;;
47930;SDS011;33697;51.520;9.950;2022-11-20T05:23:20;35.00;;;18.57;;
47930;SDS011;33697;51.520;9.950;2022-11-20T05:25:47;34.57;;;17.80;;
47930;SDS011;33697;51.520;9.950;2022-11-20T05:28:13;33.83;;;18.93;;
47930;SDS011;33697;51.520;9.950;2022-11-20T05:30:40;30.87;;;19.00;;
47930;SDS011;33697;51.520;9.950;2022-11-20T05:33:07;32.97;;;18.57;;
47930;SDS011;33697;51.520;9.950;2022-11-20T05:35:33;38.77;;;20.53;;
47930;SDS011;33697;51.520;9.950;2022-11-20T05:37:59;33.40;;;19.07;;
47930;SDS011;33697;51.520;9.950;2022-11-20T05:40:26;34.97;;;19.23;;
47930;SDS011;33697;51.520;9.950;2022-11-20T05:42:52;34.57;;;20.20;;
47930;SDS011;33697;51.520;9.950;2022-11-20T05:45:18;38.03;;;19.43;;
47930;SDS011;33697;51.520;9.950;2022-11-20T05:47:45;36.33;;;20.80;;
47930;SDS011;33697;51.520;9.950;2022-11-20T05:50:11;34.43;;;21.43;;
47930;SDS011;33697;51.520;9.950;2022-11-20T05:52:37;35.13;;;20.97;;
47930;SDS011;33697;51.520;9.950;2022-11-20T05:55:04;29.63;;;19.50;;
47930;SDS011;33697;51.520;9.950;2022-11-20T05:57:30;37.47;;;19.53;;
47930;SDS011;33697;51.520;9.950;2022-11-20T05:59:56;40.17;;;21.57;;
47930;SDS011;33697;51.520;9.950;2022-11-20T06:02:23;37.23;;;20.10;;
47930;SDS011;33697;51.520;9.950;2022-11-20T06:04:49;29.00;;;18.50;;
47930;SDS011;33697;51.520;9.950;2022-11-20T06:07:15;43.63;;;20.40;;
47930;SDS011;33697;51.520;9.950;2022-11-20T06:09:42;38.47;;;19.50;;
47930;SDS011;33697;51.520;9.950;2022-11-20T06:12:08;39.00;;;23.37;;
47930;SDS011;33697;51.520;9.950;2022-11-20T06:14:35;34.83;;;19.27;;
47930;SDS011;33697;51.520;9.950;2022-11-20T06:17:01;32.67;;;20.73;;
47930;SDS011;33697;51.520;9.950;2022-11-20T06:19:27;36.83;;;20.70;;
47930;SDS011;33697;51.520;9.950;2022-11-20T06:21:53;35.60;;;20.37;;
47930;SDS011;33697;51.520;9.950;2022-11-20T06:24:20;32.70;;;18.90;;
47930;SDS011;33697;51.520;9.950;2022-11-20T06:26:46;38.40;;;20.13;;
47930;SDS011;33697;51.520;9.950;2022-11-20T06:29:12;32.57;;;19.27;;
47930;SDS011;33697;51.520;9.950;2022-11-20T06:31:39;34.73;;;19.57;;
47930;SDS011;33697;51.520;9.950;2022-11-20T06:34:05;37.53;;;20.77;;
47930;SDS011;33697;51.520;9.950;2022-11-20T06:36:32;34.63;;;20.13;;
47930;SDS011;33697;51.520;9.950;2022-11-20T06:38:59;33.83;;;21.43;;
47930;SDS011;33697;51.520;9.950;2022-11-20T06:41:25;37.87;;;19.97;;
47930;SDS011;33697;51.520;9.950;2022-11-20T06:43:51;34.40;;;19.87;;
47930;SDS011;33697;51.520;9.950;2022-11-20T06:46:18;31.80;;;20.40;;
47930;SDS011;33697;51.520;9.950;2022-11-20T06:48:45;38.57;;;19.70;;
47930;SDS011;33697;51.520;9.950;2022-11-20T06:51:11;38.43;;;20.23;;
47930;SDS011;33697;51.520;9.950;2022-11-20T06:53:38;35.23;;;19.27;;
47930;SDS011;33697;51.520;9.950;2022-11-20T06:56:05;32.30;;;19.27;;
47930;SDS011;33697;51.520;9.950;2022-11-20T06:58:32;32.30;;;20.73;;
47930;SDS011;33697;51.520;9.950;2022-11-20T07:00:59;36.30;;;20.63;;
47930;SDS011;33697;51.520;9.950;2022-11-20T07:03:25;35.63;;;19.90;;
47930;SDS011;33697;51.520;9.950;2022-11-20T07:05:54;48.47;;;23.30;;
47930;SDS011;33697;51.520;9.950;2022-11-20T07:08:20;33.93;;;20.53;;
47930;SDS011;33697;51.520;9.950;2022-11-20T07:10:46;32.90;;;20.47;;
47930;SDS011;33697;51.520;9.950;2022-11-20T07:13:13;35.77;;;21.60;;
47930;SDS011;33697;51.520;9.950;2022-11-20T07:15:39;34.17;;;22.10;;
47930;SDS011;33697;51.520;9.950;2022-11-20T07:18:06;42.40;;;24.03;;
47930;SDS011;33697;51.520;9.950;2022-11-20T07:20:32;39.73;;;22.23;;
47930;SDS011;33697;51.520;9.950;2022-11-20T07:22:58;38.33;;;22.10;;
47930;SDS011;33697;51.520;9.950;2022-11-20T07:25:25;37.87;;;21.90;;
47930;SDS011;33697;51.520;9.950;2022-11-20T07:27:52;35.43;;;19.43;;
47930;SDS011;33697;51.520;9.950;2022-11-20T07:30:18;41.10;;;24.80;;
47930;SDS011;33697;51.520;9.950;2022-11-20T07:32:50;35.43;;;21.33;;
47930;SDS011;33697;51.520;9.950;2022-11-20T07:35:16;38.63;;;22.73;;
47930;SDS011;33697;51.520;9.950;2022-11-20T07:37:43;39.90;;;22.87;;
47930;SDS011;33697;51.520;9.950;2022-11-20T07:40:09;41.50;;;23.13;;
47930;SDS011;33697;51.520;9.950;2022-11-20T07:42:36;41.70;;;22.00;;
47930;SDS011;33697;51.520;9.950;2022-11-20T07:45:02;39.80;;;21.90;;
47930;SDS011;33697;51.520;9.950;2022-11-20T07:47:34;41.23;;;23.10;;
47930;SDS011;33697;51.520;9.950;2022-11-20T07:50:00;37.77;;;21.40;;
47930;SDS011;33697;51.520;9.950;2022-11-20T07:52:26;38.63;;;23.47;;
47930;SDS011;33697;51.520;9.950;2022-11-20T07:54:53;37.87;;;21.37;;
47930;SDS011;33697;51.520;9.950;2022-11-20T07:57:19;39.63;;;22.50;;
47930;SDS011;33697;51.520;9.950;2022-11-20T07:59:53;35.37;;;22.40;;
47930;SDS011;33697;51.520;9.950;2022-11-20T08:02:19;34.03;;;20.43;;
47930;SDS011;33697;51.520;9.950;2022-11-20T08:04:45;33.87;;;20.20;;
47930;SDS011;33697;51.520;9.950;2022-11-20T08:07:12;40.23;;;20.33;;
47930;SDS011;33697;51.520;9.950;2022-11-20T08:09:38;45.00;;;21.97;;
47930;SDS011;33697;51.520;9.950;2022-11-20T08:12:04;32.80;;;20.73;;
47930;SDS011;33697;51.520;9.950;2022-11-20T08:14:49;36.10;;;20.93;;
47930;SDS011;33697;51.520;9.950;2022-11-20T08:17:15;44.67;;;23.93;;
47930;SDS011;33697;51.520;9.950;2022-11-20T08:19:42;31.37;;;18.17;;
47930;SDS011;33697;51.520;9.950;2022-11-20T08:22:08;37.13;;;22.23;;
47930;SDS011;33697;51.520;9.950;2022-11-20T08:24:34;31.23;;;19.47;;
47930;SDS011;33697;51.520;9.950;2022-11-20T08:27:01;30.40;;;19.20;;
47930;SDS011;33697;51.520;9.950;2022-11-20T08:29:27;34.93;;;20.30;;
47930;SDS011;33697;51.520;9.950;2022-11-20T08:31:53;24.67;;;16.43;;
47930;SDS011;33697;51.520;9.950;2022-11-20T08:34:20;24.83;;;13.57;;
47930;SDS011;33697;51.520;9.950;2022-11-20T08:36:46;29.67;;;16.10;;
47930;SDS011;33697;51.520;9.950;2022-11-20T08:39:12;32.00;;;18.33;;
47930;SDS011;33697;51.520;9.950;2022-11-20T08:41:39;38.27;;;17.53;;
47930;SDS011;33697;51.520;9.950;2022-11-20T08:44:06;31.50;;;17.83;;
47930;SDS011;33697;51.520;9.950;2022-11-20T08:46:36;29.30;;;15.77;;
47930;SDS011;33697;51.520;9.950;2022-11-20T08:51:29;30.40;;;16.57;;
47930;SDS011;33697;51.520;9.950;2022-11-20T08:53:56;23.97;;;14.50;;
47930;SDS011;33697;51.520;9.950;2022-11-20T08:56:22;27.80;;;16.10;;
47930;SDS011;33697;51.520;9.950;2022-11-20T08:58:49;27.63;;;17.58;;
47930;SDS011;33697;51.520;9.950;2022-11-20T09:01:36;29.93;;;16.67;;
47930;SDS011;33697;51.520;9.950;2022-11-20T09:04:02;37.60;;;18.47;;
47930;SDS011;33697;51.520;9.950;2022-11-20T09:06:30;26.07;;;18.70;;
47930;SDS011;33697;51.520;9.950;2022-11-20T09:08:56;27.80;;;16.67;;
47930;SDS011;33697;51.520;9.950;2022-11-20T09:11:27;27.13;;;17.70;;
47930;SDS011;33697;51.520;9.950;2022-11-20T09:13:53;24.70;;;18.10;;
47930;SDS011;33697;51.520;9.950;2022-11-20T09:16:19;25.95;;;16.20;;
47930;SDS011;33697;51.520;9.950;2022-11-20T09:18:46;27.25;;;17.10;;
47930;SDS011;33697;51.520;9.950;2022-11-20T09:21:22;27.23;;;15.53;;
47930;SDS011;33697;51.520;9.950;2022-11-20T09:23:50;33.50;;;18.13;;
47930;SDS011;33697;51.520;9.950;2022-11-20T09:26:16;24.37;;;14.80;;
47930;SDS011;33697;51.520;9.950;2022-11-20T09:28:42;25.13;;;15.97;;
47930;SDS011;33697;51.520;9.950;2022-11-20T09:31:09;28.40;;;17.58;;
47930;SDS011;33697;51.520;9.950;2022-11-20T09:33:41;31.73;;;18.63;;
47930;SDS011;33697;51.520;9.950;2022-11-20T09:36:08;30.10;;;18.48;;
47930;SDS011;33697;51.520;9.950;2022-11-20T09:38:35;28.00;;;17.83;;
47930;SDS011;33697;51.520;9.950;2022-11-20T09:41:05;25.05;;;16.35;;
47930;SDS011;33697;51.520;9.950;2022-11-20T09:46:20;29.58;;;18.60;;
47930;SDS011;33697;51.520;9.950;2022-11-20T09:49:07;31.75;;;18.20;;
47930;SDS011;33697;51.520;9.950;2022-11-20T09:51:46;22.60;;;14.82;;
47930;SDS011;33697;51.520;9.950;2022-11-20T09:54:18;27.70;;;16.75;;
47930;SDS011;33697;51.520;9.950;2022-11-20T09:56:46;28.88;;;18.02;;
47930;SDS011;33697;51.520;9.950;2022-11-20T10:00:00;25.67;;;16.88;;
47930;SDS011;33697;51.520;9.950;2022-11-20T10:02:00;27.25;;;17.13;;
47930;SDS011;33697;51.520;9.950;2022-11-20T10:04:28;24.83;;;15.27;;
47930;SDS011;33697;51.520;9.950;2022-11-20T10:06:59;24.05;;;14.65;;
47930;SDS011;33697;51.520;9.950;2022-11-20T10:09:50;24.48;;;16.67;;
47930;SDS011;33697;51.520;9.950;2022-11-20T10:25:37;23.25;;;13.55;;
47930;SDS011;33697;51.520;9.950;2022-11-20T10:30:41;28.88;;;18.10;;
47930;SDS011;33697;51.520;9.950;2022-11-20T10:33:26;26.38;;;16.17;;
47930;SDS011;33697;51.520;9.950;2022-11-20T10:36:34;26.95;;;15.85;;
47930;SDS011;33697;51.520;9.950;2022-11-20T10:39:06;25.70;;;17.40;;
47930;SDS011;33697;51.520;9.950;2022-11-20T10:41:38;24.98;;;15.55;;
47930;SDS011;33697;51.520;9.950;2022-11-20T10:44:14;23.33;;;15.55;;
47930;SDS011;33697;51.520;9.950;2022-11-20T10:46:44;26.42;;;17.50;;
47930;SDS011;33697;51.520;9.950;2022-11-20T10:49:12;18.08;;;13.70;;
47930;SDS011;33697;51.520;9.950;2022-11-20T10:51:46;17.23;;;14.48;;
47930;SDS011;33697;51.520;9.950;2022-11-20T10:57:02;17.38;;;12.63;;
47930;SDS011;33697;51.520;9.950;2022-11-20T10:59:47;15.40;;;11.35;;
47930;SDS011;33697;51.520;9.950;2022-11-20T11:02:21;18.42;;;11.75;;
47930;SDS011;33697;51.520;9.950;2022-11-20T11:04:54;17.77;;;12.18;;
47930;SDS011;33697;51.520;9.950;2022-11-20T11:07:22;15.30;;;11.40;;
47930;SDS011;33697;51.520;9.950;2022-11-20T11:09:50;17.27;;;13.43;;
47930;SDS011;33697;51.520;9.950;2022-11-20T11:12:18;18.55;;;12.52;;
47930;SDS011;33697;51.520;9.950;2022-11-20T11:14:48;18.27;;;12.20;;
47930;SDS011;33697;51.520;9.950;2022-11-20T11:17:33;18.13;;;13.15;;
47930;SDS011;33697;51.520;9.950;2022-11-20T11:20:01;16.05;;;12.02;;
47930;SDS011;33697;51.520;9.950;2022-11-20T11:22:29;18.67;;;12.82;;
47930;SDS011;33697;51.520;9.950;2022-11-20T11:24:55;17.70;;;11.27;;
47930;SDS011;33697;51.520;9.950;2022-11-20T11:27:22;15.70;;;11.98;;
47930;SDS011;33697;51.520;9.950;2022-11-20T11:29:48;14.55;;;10.60;;
47930;SDS011;33697;51.520;9.950;2022-11-20T11:34:41;18.83;;;12.95;;
47930;SDS011;33697;51.520;9.950;2022-11-20T11:37:15;19.25;;;12.93;;
47930;SDS011;33697;51.520;9.950;2022-11-20T11:39:43;18.25;;;13.45;;
47930;SDS011;33697;51.520;9.950;2022-11-20T11:42:11;18.02;;;12.75;;
47930;SDS011;33697;51.520;9.950;2022-11-20T11:44:43;20.80;;;13.48;;
47930;SDS011;33697;51.520;9.950;2022-11-20T11:47:43;19.95;;;12.95;;
47930;SDS011;33697;51.520;9.950;2022-11-20T11:50:26;17.95;;;12.25;;
47930;SDS011;33697;51.520;9.950;2022-11-20T11:52:58;18.95;;;12.85;;
47930;SDS011;33697;51.520;9.950;2022-11-20T11:58:14;20.02;;;14.68;;
47930;SDS011;33697;51.520;9.950;2022-11-20T12:00:46;21.00;;;12.70;;
47930;SDS011;33697;51.520;9.950;2022-11-20T12:03:24;20.30;;;13.98;;
47930;SDS011;33697;51.520;9.950;2022-11-20T12:06:06;20.10;;;13.52;;
47930;SDS011;33697;51.520;9.950;2022-11-20T12:13:57;18.83;;;14.48;;
47930;SDS011;33697;51.520;9.950;2022-11-20T12:16:24;27.02;;;17.23;;
47930;SDS011;33697;51.520;9.950;2022-11-20T12:18:51;22.20;;;14.23;;
47930;SDS011;33697;51.520;9.950;2022-11-20T12:21:19;24.30;;;15.13;;
47930;SDS011;33697;51.520;9.950;2022-11-20T12:23:53;21.80;;;14.07;;
47930;SDS011;33697;51.520;9.950;2022-11-20T12:26:35;24.65;;;16.33;;
47930;SDS011;33697;51.520;9.950;2022-11-20T12:31:38;20.05;;;13.70;;
47930;SDS011;33697;51.520;9.950;2022-11-20T12:50:02;17.92;;;13.52;;
47930;SDS011;33697;51.520;9.950;2022-11-20T12:57:29;18.70;;;11.60;;
47930;SDS011;33697;51.520;9.950;2022-11-20T13:02:36;15.13;;;10.45;;
47930;SDS011;33697;51.520;9.950;2022-11-20T13:07:32;15.27;;;9.57;;
47930;SDS011;33697;51.520;9.950;2022-11-20T13:10:00;14.80;;;10.15;;
47930;SDS011;33697;51.520;9.950;2022-11-20T13:12:36;13.75;;;10.18;;
47930;SDS011;33697;51.520;9.950;2022-11-20T13:17:52;15.57;;;10.73;;
47930;SDS011;33697;51.520;9.950;2022-11-20T13:20:19;18.25;;;12.50;;
47930;SDS011;33697;51.520;9.950;2022-11-20T13:22:50;15.20;;;10.60;;
47930;SDS011;33697;51.520;9.950;2022-11-20T13:25:29;16.95;;;11.50;;
47930;SDS011;33697;51.520;9.950;2022-11-20T13:27:57;18.80;;;13.35;;
47930;SDS011;33697;51.520;9.950;2022-11-20T13:30:24;14.45;;;10.60;;
47930;SDS011;33697;51.520;9.950;2022-11-20T13:33:09;12.02;;;9.20;;
47930;SDS011;33697;51.520;9.950;2022-11-20T13:35:40;14.05;;;9.45;;
47930;SDS011;33697;51.520;9.950;2022-11-20T13:40:34;14.00;;;9.52;;
47930;SDS011;33697;51.520;9.950;2022-11-20T13:43:04;16.20;;;10.50;;
47930;SDS011;33697;51.520;9.950;2022-11-20T13:45:33;11.65;;;8.38;;
47930;SDS011;33697;51.520;9.950;2022-11-20T13:48:04;14.45;;;10.80;;
47930;SDS011;33697;51.520;9.950;2022-11-20T13:53:15;15.20;;;9.45;;
47930;SDS011;33697;51.520;9.950;2022-11-20T14:01:01;15.50;;;10.68;;
47930;SDS011;33697;51.520;9.950;2022-11-20T14:03:33;11.13;;;8.35;;
47930;SDS011;33697;51.520;9.950;2022-11-20T14:06:27;11.80;;;9.23;;
47930;SDS011;33697;51.520;9.950;2022-11-20T14:08:54;17.23;;;9.00;;
47930;SDS011;33697;51.520;9.950;2022-11-20T14:11:21;11.70;;;7.57;;
47930;SDS011;33697;51.520;9.950;2022-11-20T14:16:25;11.13;;;8.57;;
47930;SDS011;33697;51.520;9.950;2022-11-20T14:18:52;11.82;;;8.63;;
47930;SDS011;33697;51.520;9.950;2022-11-20T14:21:29;14.73;;;9.52;;
47930;SDS011;33697;51.520;9.950;2022-11-20T14:24:05;16.20;;;9.45;;
47930;SDS011;33697;51.520;9.950;2022-11-20T14:26:32;12.13;;;9.60;;
47930;SDS011;33697;51.520;9.950;2022-11-20T14:28:58;18.23;;;11.07;;
47930;SDS011;33697;51.520;9.950;2022-11-20T14:31:26;19.13;;;10.00;;
47930;SDS011;33697;51.520;9.950;2022-11-20T14:33:53;13.05;;;9.98;;
47930;SDS011;33697;51.520;9.950;2022-11-20T14:36:21;14.98;;;9.60;;
47930;SDS011;33697;51.520;9.950;2022-11-20T14:38:48;15.07;;;8.48;;
47930;SDS011;33697;51.520;9.950;2022-11-20T14:41:22;14.60;;;9.50;;
47930;SDS011;33697;51.520;9.950;2022-11-20T14:43:50;11.60;;;9.60;;
47930;SDS011;33697;51.520;9.950;2022-11-20T14:46:17;14.98;;;10.35;;
47930;SDS011;33697;51.520;9.950;2022-11-20T14:51:10;14.52;;;8.82;;
47930;SDS011;33697;51.520;9.950;2022-11-20T14:53:36;13.48;;;10.00;;
47930;SDS011;33697;51.520;9.950;2022-11-20T14:56:03;17.05;;;11.18;;
47930;SDS011;33697;51.520;9.950;2022-11-20T14:58:30;15.85;;;10.73;;
47930;SDS011;33697;51.520;9.950;2022-11-20T15:01:01;17.45;;;10.23;;
47930;SDS011;33697;51.520;9.950;2022-11-20T15:03:32;16.55;;;11.82;;
47930;SDS011;33697;51.520;9.950;2022-11-20T15:05:58;15.07;;;11.30;;
47930;SDS011;33697;51.520;9.950;2022-11-20T15:08:25;15.73;;;11.40;;
47930;SDS011;33697;51.520;9.950;2022-11-20T15:10:51;20.17;;;12.57;;
47930;SDS011;33697;51.520;9.950;2022-11-20T15:13:25;15.73;;;12.32;;
47930;SDS011;33697;51.520;9.950;2022-11-20T15:15:53;16.88;;;11.52;;
47930;SDS011;33697;51.520;9.950;2022-11-20T15:18:22;17.00;;;12.45;;
47930;SDS011;33697;51.520;9.950;2022-11-20T15:20:48;26.70;;;15.63;;
47930;SDS011;33697;51.520;9.950;2022-11-20T15:23:15;21.35;;;13.25;;
47930;SDS011;33697;51.520;9.950;2022-11-20T15:25:44;19.77;;;12.32;;
47930;SDS011;33697;51.520;9.950;2022-11-20T15:30:47;26.23;;;16.33;;
47930;SDS011;33697;51.520;9.950;2022-11-20T15:33:13;27.88;;;16.88;;
47930;SDS011;33697;51.520;9.950;2022-11-20T15:35:40;30.52;;;17.98;;
47930;SDS011;33697;51.520;9.950;2022-11-20T15:38:06;24.80;;;15.60;;
47930;SDS011;33697;51.520;9.950;2022-11-20T15:40:33;23.70;;;14.90;;
47930;SDS011;33697;51.520;9.950;2022-11-20T15:42:59;20.05;;;14.30;;
47930;SDS011;33697;51.520;9.950;2022-11-20T15:45:45;24.23;;;16.73;;
47930;SDS011;33697;51.520;9.950;2022-11-20T15:48:21;27.25;;;16.33;;
47930;SDS011;33697;51.520;9.950;2022-11-20T15:51:03;27.33;;;16.45;;
47930;SDS011;33697;51.520;9.950;2022-11-20T15:53:30;25.35;;;16.73;;
47930;SDS011;33697;51.520;9.950;2022-11-20T15:55:56;20.77;;;14.68;;
47930;SDS011;33697;51.520;9.950;2022-11-20T15:58:22;28.65;;;16.30;;
47930;SDS011;33697;51.520;9.950;2022-11-20T16:00:50;25.83;;;15.93;;